Time;durP1;ratioP1;P1;durP2;ratioP2;P2;SDS_P1;SDS_P2;PMS_P1;PMS_P2;Temp;Humidity;BMP_temperature;BMP_pressure;BME280_temperature;BME280_humidity;BME280_pressure;Samples;Min_cycle;Max_cycle;Signal;HPM_P1;HPM_P2
2024/02/14 00:01:39;;;;;;;1.07;1.07;;;;;;;;;;4980031;28;83193;-56
2024/02/14 00:04:04;;;;;;;0.60;0.60;;;;;;;;;;4979856;28;82278;-55
2024/02/14 00:06:34;;;;;;;1.30;0.60;;;;;;;;;;4973126;28;82091;-57
2024/02/14 00:08:59;;;;;;;1.67;1.03;;;;;;;;;;4978428;28;82352;-56
2024/02/14 00:11:24;;;;;;;0.37;0.37;;;;;;;;;;4977608;28;82333;-57
2024/02/14 00:13:50;;;;;;;0.30;0.30;;;;;;;;;;4976666;28;81288;-54
2024/02/14 00:16:15;;;;;;;0.20;0.20;;;;;;;;;;4978468;28;82354;-57
2024/02/14 00:18:40;;;;;;;2.20;1.20;;;;;;;;;;4976754;28;81951;-56
2024/02/14 00:21:05;;;;;;;0.50;0.43;;;;;;;;;;4977693;28;83190;-57
2024/02/14 00:23:31;;;;;;;2.10;1.13;;;;;;;;;;4975230;28;82509;-55
2024/02/14 00:25:56;;;;;;;2.17;0.67;;;;;;;;;;4977057;28;82300;-53
2024/02/14 00:28:23;;;;;;;0.50;0.50;;;;;;;;;;4979171;28;81854;-57
2024/02/14 00:30:49;;;;;;;0.47;0.45;;;;;;;;;;4975557;28;83063;-55
2024/02/14 00:33:14;;;;;;;0.40;0.40;;;;;;;;;;4978718;28;82293;-57
2024/02/14 00:35:39;;;;;;;0.63;0.63;;;;;;;;;;4978763;28;82366;-54
2024/02/14 00:38:04;;;;;;;0.70;0.40;;;;;;;;;;4979503;28;81372;-57
2024/02/14 00:40:30;;;;;;;2.70;0.77;;;;;;;;;;4977855;28;82446;-55
2024/02/14 00:42:55;;;;;;;1.40;0.80;;;;;;;;;;4978929;28;82457;-57
2024/02/14 00:45:20;;;;;;;0.90;0.70;;;;;;;;;;4975191;28;83129;-56
2024/02/14 00:47:45;;;;;;;0.70;0.70;;;;;;;;;;4977952;28;83329;-55
2024/02/14 00:50:13;;;;;;;0.77;0.77;;;;;;;;;;4975113;28;82730;-52
2024/02/14 00:52:39;;;;;;;0.37;0.37;;;;;;;;;;4975887;28;82605;-55
2024/02/14 00:55:04;;;;;;;0.60;0.60;;;;;;;;;;4977896;28;85350;-55
2024/02/14 00:57:30;;;;;;;1.20;0.40;;;;;;;;;;4972728;28;82664;-57
2024/02/14 00:59:56;;;;;;;0.80;0.80;;;;;;;;;;4974298;28;82219;-54
2024/02/14 01:02:22;;;;;;;0.30;0.30;;;;;;;;;;4979646;28;81884;-57
2024/02/14 01:04:47;;;;;;;1.00;0.70;;;;;;;;;;4977560;28;82028;-56
2024/02/14 01:07:12;;;;;;;0.17;0.10;;;;;;;;;;4975540;28;82208;-57
2024/02/14 01:09:38;;;;;;;0.60;0.40;;;;;;;;;;4977081;28;82894;-56
2024/02/14 01:12:04;;;;;;;0.70;0.60;;;;;;;;;;4978363;28;82283;-57
2024/02/14 01:14:30;;;;;;;0.70;0.70;;;;;;;;;;4976398;28;82024;-56
2024/02/14 01:16:56;;;;;;;0.40;0.40;;;;;;;;;;4982001;28;82673;-57
2024/02/14 01:19:23;;;;;;;0.90;0.90;;;;;;;;;;4975669;28;82544;-54
2024/02/14 01:21:48;;;;;;;0.32;0.30;;;;;;;;;;4975923;28;83498;-56
2024/02/14 01:24:14;;;;;;;0.30;0.30;;;;;;;;;;4978483;28;82439;-55
2024/02/14 01:26:40;;;;;;;2.60;0.80;;;;;;;;;;4979012;28;82345;-56
2024/02/14 01:29:05;;;;;;;1.20;1.10;;;;;;;;;;4977205;28;81889;-57
2024/02/14 01:31:31;;;;;;;0.80;0.70;;;;;;;;;;4978924;28;82683;-57
2024/02/14 01:33:57;;;;;;;0.30;0.30;;;;;;;;;;4978039;28;82849;-56
2024/02/14 01:36:22;;;;;;;0.10;0.10;;;;;;;;;;4978514;28;81978;-55
2024/02/14 01:38:48;;;;;;;0.60;0.52;;;;;;;;;;4979937;28;81969;-54
2024/02/14 01:41:13;;;;;;;0.40;0.30;;;;;;;;;;4976979;28;82575;-56
2024/02/14 01:43:38;;;;;;;0.87;0.47;;;;;;;;;;4978175;28;82557;-56
2024/02/14 01:46:07;;;;;;;0.90;0.50;;;;;;;;;;4977135;28;82931;-55
2024/02/14 01:48:33;;;;;;;1.60;0.60;;;;;;;;;;4978529;28;82252;-56
2024/02/14 01:50:59;;;;;;;0.45;0.45;;;;;;;;;;4982409;28;81302;-54
2024/02/14 01:53:25;;;;;;;0.20;0.20;;;;;;;;;;4978396;28;82395;-56
2024/02/14 01:55:51;;;;;;;1.40;0.70;;;;;;;;;;4980501;28;82594;-56
2024/02/14 01:58:16;;;;;;;0.10;0.10;;;;;;;;;;4981699;28;83118;-57
2024/02/14 02:00:42;;;;;;;3.23;0.70;;;;;;;;;;4981496;28;81950;-56
2024/02/14 02:03:08;;;;;;;0.50;0.50;;;;;;;;;;4981490;28;82095;-55
2024/02/14 02:05:34;;;;;;;0.40;0.40;;;;;;;;;;4979133;28;83205;-54
2024/02/14 02:07:59;;;;;;;1.20;0.63;;;;;;;;;;4977309;28;82553;-56
2024/02/14 02:10:25;;;;;;;2.50;0.73;;;;;;;;;;4979354;28;82181;-56
2024/02/14 02:12:51;;;;;;;1.85;0.70;;;;;;;;;;4981214;28;82386;-55
2024/02/14 02:15:16;;;;;;;0.77;0.37;;;;;;;;;;4981355;28;81807;-54
2024/02/14 02:17:41;;;;;;;0.20;0.20;;;;;;;;;;4979543;28;82311;-57
2024/02/14 02:20:08;;;;;;;0.37;0.37;;;;;;;;;;4980103;28;82371;-57
2024/02/14 02:22:35;;;;;;;0.70;0.57;;;;;;;;;;4977556;28;83019;-54
2024/02/14 02:25:00;;;;;;;0.20;0.20;;;;;;;;;;4980799;28;83428;-55
2024/02/14 02:27:25;;;;;;;0.17;0.17;;;;;;;;;;4981726;28;82371;-55
2024/02/14 02:29:51;;;;;;;0.20;0.20;;;;;;;;;;4980340;28;82049;-55
2024/02/14 02:32:17;;;;;;;2.40;1.00;;;;;;;;;;4980986;28;82370;-56
2024/02/14 02:34:45;;;;;;;0.75;0.70;;;;;;;;;;4978998;28;82819;-55
2024/02/14 02:37:10;;;;;;;0.90;0.80;;;;;;;;;;4980379;28;84619;-55
2024/02/14 02:39:36;;;;;;;0.50;0.30;;;;;;;;;;4978480;28;81635;-55
2024/02/14 02:42:02;;;;;;;0.00;0.00;;;;;;;;;;4982812;28;81971;-57
2024/02/14 02:44:28;;;;;;;0.10;0.10;;;;;;;;;;4980155;28;82398;-56
2024/02/14 02:46:53;;;;;;;1.27;0.80;;;;;;;;;;4976855;28;83578;-57
2024/02/14 02:49:18;;;;;;;0.57;0.57;;;;;;;;;;4980017;28;81896;-55
2024/02/14 02:51:44;;;;;;;0.13;0.13;;;;;;;;;;4978528;28;82434;-57
2024/02/14 02:54:11;;;;;;;1.80;0.35;;;;;;;;;;4978275;28;82425;-55
2024/02/14 02:56:36;;;;;;;0.20;0.20;;;;;;;;;;4976597;28;82893;-56
2024/02/14 02:59:03;;;;;;;0.10;0.10;;;;;;;;;;4980048;28;82685;-57
2024/02/14 03:01:30;;;;;;;0.40;0.40;;;;;;;;;;4980422;28;81963;-56
2024/02/14 03:03:56;;;;;;;2.35;0.15;;;;;;;;;;4983678;28;81250;-55
2024/02/14 03:06:21;;;;;;;0.40;0.40;;;;;;;;;;4979441;28;83004;-56
2024/02/14 03:08:48;;;;;;;0.40;0.40;;;;;;;;;;4979778;28;82072;-55
2024/02/14 03:11:15;;;;;;;0.43;0.43;;;;;;;;;;4977789;28;83512;-55
2024/02/14 03:13:40;;;;;;;0.40;0.20;;;;;;;;;;4980010;28;82246;-57
2024/02/14 03:16:06;;;;;;;0.13;0.13;;;;;;;;;;4980829;28;82127;-55
2024/02/14 03:18:32;;;;;;;0.60;0.50;;;;;;;;;;4979711;28;82119;-56
2024/02/14 03:20:57;;;;;;;0.50;0.45;;;;;;;;;;4977694;28;82757;-57
2024/02/14 03:23:23;;;;;;;1.00;0.20;;;;;;;;;;4979146;28;82316;-57
2024/02/14 03:25:48;;;;;;;0.40;0.40;;;;;;;;;;4980830;28;82612;-57
2024/02/14 03:28:14;;;;;;;0.90;0.30;;;;;;;;;;4979263;28;82181;-57
2024/02/14 03:30:39;;;;;;;0.32;0.32;;;;;;;;;;4979454;28;82007;-57
2024/02/14 03:33:05;;;;;;;0.70;0.50;;;;;;;;;;4979350;28;82407;-55
2024/02/14 03:35:30;;;;;;;0.63;0.43;;;;;;;;;;4979194;28;83141;-57
2024/02/14 03:37:56;;;;;;;0.10;0.10;;;;;;;;;;4980174;28;83134;-56
2024/02/14 03:40:21;;;;;;;0.15;0.15;;;;;;;;;;4976520;28;83107;-54
2024/02/14 03:42:47;;;;;;;0.20;0.20;;;;;;;;;;4978820;28;83569;-56
2024/02/14 03:45:12;;;;;;;0.15;0.15;;;;;;;;;;4976319;28;81946;-57
2024/02/14 03:47:41;;;;;;;0.20;0.20;;;;;;;;;;4981163;28;82780;-56
2024/02/14 03:50:07;;;;;;;0.82;0.40;;;;;;;;;;4978360;28;82056;-54
2024/02/14 03:52:32;;;;;;;0.60;0.20;;;;;;;;;;4979250;28;81237;-53
2024/02/14 03:54:59;;;;;;;0.40;0.40;;;;;;;;;;4978599;28;82462;-57
2024/02/14 03:57:25;;;;;;;0.30;0.20;;;;;;;;;;4978917;28;82179;-56
2024/02/14 03:59:50;;;;;;;0.60;0.20;;;;;;;;;;4976001;28;82863;-56
2024/02/14 04:02:15;;;;;;;0.20;0.20;;;;;;;;;;4979309;28;81996;-55
2024/02/14 04:04:41;;;;;;;1.00;0.70;;;;;;;;;;4980293;28;83762;-57
2024/02/14 04:07:08;;;;;;;0.27;0.27;;;;;;;;;;4981813;28;82442;-57
2024/02/14 04:09:33;;;;;;;0.90;0.50;;;;;;;;;;4978185;28;82013;-54
2024/02/14 04:11:58;;;;;;;0.40;0.30;;;;;;;;;;4973008;28;82430;-55
2024/02/14 04:14:24;;;;;;;0.10;0.10;;;;;;;;;;4979249;28;82173;-56
2024/02/14 04:16:49;;;;;;;0.20;0.20;;;;;;;;;;4979524;28;81511;-54
2024/02/14 04:19:17;;;;;;;0.00;0.00;;;;;;;;;;4978588;28;83284;-57
2024/02/14 04:21:42;;;;;;;0.10;0.10;;;;;;;;;;4979237;28;82892;-55
2024/02/14 04:24:08;;;;;;;0.00;0.00;;;;;;;;;;4978444;28;83205;-56
2024/02/14 04:26:33;;;;;;;0.77;0.20;;;;;;;;;;4979280;28;83169;-56
2024/02/14 04:28:58;;;;;;;1.17;0.57;;;;;;;;;;4982180;28;82029;-56
2024/02/14 04:31:23;;;;;;;0.43;0.20;;;;;;;;;;4978562;28;82649;-55
2024/02/14 04:33:51;;;;;;;0.50;0.20;;;;;;;;;;4977172;28;81887;-56
2024/02/14 04:36:20;;;;;;;0.20;0.20;;;;;;;;;;4978410;28;82264;-57
2024/02/14 04:38:46;;;;;;;0.10;0.10;;;;;;;;;;4977429;28;82694;-55
2024/02/14 04:41:11;;;;;;;0.20;0.20;;;;;;;;;;4976993;28;81420;-56
2024/02/14 04:43:37;;;;;;;0.10;0.10;;;;;;;;;;4978039;28;82516;-55
2024/02/14 04:46:06;;;;;;;0.00;0.00;;;;;;;;;;4978653;28;82563;-57
2024/02/14 04:48:31;;;;;;;0.10;0.10;;;;;;;;;;4978485;28;83292;-55
2024/02/14 04:50:57;;;;;;;1.60;0.30;;;;;;;;;;4981509;28;83447;-56
2024/02/14 04:53:22;;;;;;;0.00;0.00;;;;;;;;;;4977993;28;82221;-55
2024/02/14 04:55:47;;;;;;;0.20;0.20;;;;;;;;;;4979086;28;82366;-56
2024/02/14 04:58:12;;;;;;;0.10;0.10;;;;;;;;;;4973698;28;82052;-57
2024/02/14 05:00:38;;;;;;;0.70;0.40;;;;;;;;;;4976906;28;81960;-57
2024/02/14 05:03:03;;;;;;;0.50;0.43;;;;;;;;;;4979478;28;82020;-55
2024/02/14 05:05:29;;;;;;;0.30;0.30;;;;;;;;;;4979607;28;82090;-55
2024/02/14 05:07:54;;;;;;;0.10;0.10;;;;;;;;;;4977888;28;82040;-54
2024/02/14 05:10:19;;;;;;;0.20;0.20;;;;;;;;;;4974042;28;84004;-55
2024/02/14 05:12:45;;;;;;;1.30;0.43;;;;;;;;;;4977476;28;83553;-56
2024/02/14 05:15:12;;;;;;;0.40;0.40;;;;;;;;;;4973359;28;83123;-56
2024/02/14 05:17:37;;;;;;;0.00;0.00;;;;;;;;;;4978661;28;82786;-54
2024/02/14 05:20:03;;;;;;;0.60;0.60;;;;;;;;;;4977880;28;82469;-57
2024/02/14 05:22:28;;;;;;;0.30;0.30;;;;;;;;;;4980385;28;82916;-57
2024/02/14 05:24:53;;;;;;;2.10;0.80;;;;;;;;;;4982129;28;82109;-56
2024/02/14 05:27:19;;;;;;;0.03;0.03;;;;;;;;;;4980735;28;82011;-57
2024/02/14 05:29:45;;;;;;;1.67;0.37;;;;;;;;;;4982846;28;82571;-57
2024/02/14 05:32:10;;;;;;;0.30;0.20;;;;;;;;;;4982631;28;82176;-57
2024/02/14 05:34:35;;;;;;;0.23;0.23;;;;;;;;;;4982852;28;82140;-57
2024/02/14 05:37:00;;;;;;;0.60;0.60;;;;;;;;;;4978606;28;85837;-57
2024/02/14 05:39:25;;;;;;;2.77;0.37;;;;;;;;;;4982196;28;82093;-54
2024/02/14 05:41:51;;;;;;;0.40;0.13;;;;;;;;;;4982290;28;82285;-56
2024/02/14 05:44:16;;;;;;;4.10;0.80;;;;;;;;;;4981160;28;81955;-57
2024/02/14 05:46:41;;;;;;;1.10;0.60;;;;;;;;;;4981210;28;81929;-55
2024/02/14 05:49:07;;;;;;;1.20;0.73;;;;;;;;;;4982057;28;84355;-57
2024/02/14 05:51:32;;;;;;;0.93;0.67;;;;;;;;;;4981378;28;81919;-61
2024/02/14 05:53:57;;;;;;;0.17;0.17;;;;;;;;;;4980161;28;81480;-61
2024/02/14 05:56:22;;;;;;;5.03;2.20;;;;;;;;;;4983187;28;83117;-54
2024/02/14 05:58:48;;;;;;;4.57;1.77;;;;;;;;;;4973831;28;82502;-53
2024/02/14 06:01:13;;;;;;;4.50;1.73;;;;;;;;;;4976177;28;83757;-56
2024/02/14 06:03:41;;;;;;;8.43;2.03;;;;;;;;;;4974307;28;81956;-53
2024/02/14 06:06:06;;;;;;;5.05;2.38;;;;;;;;;;4979712;28;82523;-61
2024/02/14 06:08:31;;;;;;;5.00;1.63;;;;;;;;;;4980612;28;83612;-63
2024/02/14 06:10:56;;;;;;;7.47;2.23;;;;;;;;;;4979951;28;82665;-63
2024/02/14 06:13:21;;;;;;;4.17;1.83;;;;;;;;;;4981793;28;83177;-63
2024/02/14 06:15:47;;;;;;;4.00;1.83;;;;;;;;;;4983384;28;82655;-63
2024/02/14 06:18:12;;;;;;;4.20;1.87;;;;;;;;;;4981100;28;81872;-64
2024/02/14 06:20:39;;;;;;;4.53;1.70;;;;;;;;;;4980677;28;82000;-64
2024/02/14 06:23:04;;;;;;;3.20;1.50;;;;;;;;;;4978848;28;82672;-63
2024/02/14 06:25:29;;;;;;;4.57;1.60;;;;;;;;;;4980232;28;83397;-64
2024/02/14 06:27:54;;;;;;;3.57;1.50;;;;;;;;;;4978012;28;82225;-63
2024/02/14 06:30:19;;;;;;;6.33;1.90;;;;;;;;;;4979268;28;83081;-63
2024/02/14 06:32:45;;;;;;;5.50;1.60;;;;;;;;;;4980358;28;82014;-64
2024/02/14 06:35:10;;;;;;;2.97;1.33;;;;;;;;;;4979365;28;83570;-64
2024/02/14 06:37:35;;;;;;;3.40;1.60;;;;;;;;;;4982150;28;82830;-63
2024/02/14 06:40:00;;;;;;;3.10;1.20;;;;;;;;;;4974053;28;82838;-64
2024/02/14 06:42:26;;;;;;;3.30;1.50;;;;;;;;;;4979864;28;81898;-63
2024/02/14 06:44:51;;;;;;;4.88;1.23;;;;;;;;;;4979195;28;81957;-63
2024/02/14 06:47:17;;;;;;;3.93;1.10;;;;;;;;;;4976008;28;83041;-63
2024/02/14 06:49:42;;;;;;;5.30;1.43;;;;;;;;;;4979184;28;83706;-63
2024/02/14 06:52:07;;;;;;;2.77;1.27;;;;;;;;;;4980802;28;82760;-63
2024/02/14 06:54:33;;;;;;;3.77;1.33;;;;;;;;;;4980264;28;82200;-63
2024/02/14 06:56:59;;;;;;;4.20;1.40;;;;;;;;;;4980062;28;82522;-62
2024/02/14 06:59:26;;;;;;;6.10;1.30;;;;;;;;;;4982915;28;82781;-64
2024/02/14 07:01:51;;;;;;;5.40;1.10;;;;;;;;;;4978483;28;82738;-63
2024/02/14 07:04:16;;;;;;;4.13;1.40;;;;;;;;;;4980174;28;82134;-63
2024/02/14 07:06:41;;;;;;;2.23;1.37;;;;;;;;;;4978742;28;81658;-65
2024/02/14 07:09:07;;;;;;;3.53;1.50;;;;;;;;;;4977404;28;82412;-64
2024/02/14 07:11:32;;;;;;;5.97;1.40;;;;;;;;;;4976107;28;82554;-63
2024/02/14 07:13:58;;;;;;;3.67;1.40;;;;;;;;;;4976231;28;83773;-63
2024/02/14 07:16:23;;;;;;;3.78;1.20;;;;;;;;;;4980256;28;82058;-64
2024/02/14 07:18:49;;;;;;;4.83;1.23;;;;;;;;;;4979171;28;82517;-64
2024/02/14 07:21:14;;;;;;;2.65;1.38;;;;;;;;;;4981471;28;81919;-63
2024/02/14 07:23:39;;;;;;;2.97;1.20;;;;;;;;;;4976904;28;81965;-63
2024/02/14 07:26:05;;;;;;;3.83;1.47;;;;;;;;;;4977844;28;82480;-64
2024/02/14 07:28:30;;;;;;;3.73;1.23;;;;;;;;;;4979405;28;82634;-62
2024/02/14 07:30:55;;;;;;;5.67;1.43;;;;;;;;;;4980033;28;82237;-62
2024/02/14 07:33:20;;;;;;;3.90;1.50;;;;;;;;;;4978008;28;83136;-63
2024/02/14 07:35:47;;;;;;;3.03;1.52;;;;;;;;;;4979487;28;82578;-62
2024/02/14 07:38:12;;;;;;;3.70;1.80;;;;;;;;;;4978446;28;83143;-62
2024/02/14 07:40:39;;;;;;;4.83;1.53;;;;;;;;;;4979334;28;83200;-62
2024/02/14 07:43:06;;;;;;;5.85;1.88;;;;;;;;;;4981067;28;81948;-62
2024/02/14 07:45:31;;;;;;;3.22;1.52;;;;;;;;;;4974765;28;83655;-62
2024/02/14 07:47:56;;;;;;;3.17;1.50;;;;;;;;;;4978657;28;82822;-62
2024/02/14 07:50:21;;;;;;;6.97;1.60;;;;;;;;;;4978733;28;81877;-63
2024/02/14 07:52:47;;;;;;;5.45;1.73;;;;;;;;;;4974291;28;84895;-62
2024/02/14 07:55:13;;;;;;;4.93;1.53;;;;;;;;;;4977741;28;82161;-62
2024/02/14 07:57:41;;;;;;;6.07;1.52;;;;;;;;;;4976305;28;83054;-62
2024/02/14 08:00:08;;;;;;;6.00;1.80;;;;;;;;;;4975006;28;82428;-62
2024/02/14 08:02:33;;;;;;;3.72;1.33;;;;;;;;;;4979122;28;83565;-62
2024/02/14 08:04:58;;;;;;;1.70;1.00;;;;;;;;;;4978760;28;81996;-63
2024/02/14 08:07:24;;;;;;;3.60;1.40;;;;;;;;;;4979359;28;81945;-62
2024/02/14 08:09:49;;;;;;;2.10;1.00;;;;;;;;;;4978328;28;81985;-62
2024/02/14 08:12:14;;;;;;;4.23;1.47;;;;;;;;;;4979165;28;82498;-62
2024/02/14 08:14:39;;;;;;;6.83;1.70;;;;;;;;;;4978255;28;83364;-62
2024/02/14 08:17:04;;;;;;;3.20;1.17;;;;;;;;;;4978841;28;82117;-62
2024/02/14 08:19:30;;;;;;;1.90;1.20;;;;;;;;;;4977207;28;82788;-62
2024/02/14 08:21:57;;;;;;;6.37;1.07;;;;;;;;;;4978653;28;82432;-62
2024/02/14 08:24:24;;;;;;;4.22;1.33;;;;;;;;;;4980737;28;82599;-62
2024/02/14 08:26:49;;;;;;;3.30;1.13;;;;;;;;;;4972064;28;83504;-63
2024/02/14 08:29:15;;;;;;;5.67;1.20;;;;;;;;;;4976829;28;83065;-63
2024/02/14 08:31:40;;;;;;;3.13;0.90;;;;;;;;;;4978037;28;85573;-65
2024/02/14 08:34:05;;;;;;;3.17;1.47;;;;;;;;;;4976495;28;82587;-64
2024/02/14 08:36:30;;;;;;;5.25;0.90;;;;;;;;;;4978350;28;82200;-64
2024/02/14 08:38:56;;;;;;;2.67;1.17;;;;;;;;;;4975370;28;82261;-64
2024/02/14 08:41:23;;;;;;;3.03;0.90;;;;;;;;;;4975766;28;82045;-64
2024/02/14 08:43:48;;;;;;;3.55;1.13;;;;;;;;;;4975768;28;82664;-64
2024/02/14 08:46:13;;;;;;;4.40;1.13;;;;;;;;;;4980693;28;84692;-64
2024/02/14 08:48:45;;;;;;;2.70;0.97;;;;;;;;;;4975772;28;82005;-64
2024/02/14 08:51:11;;;;;;;3.33;1.25;;;;;;;;;;4976610;28;82932;-64
2024/02/14 08:53:36;;;;;;;1.98;0.80;;;;;;;;;;4974776;28;82427;-64
2024/02/14 08:56:01;;;;;;;2.93;0.97;;;;;;;;;;4978102;28;82531;-65
2024/02/14 08:58:27;;;;;;;4.07;1.07;;;;;;;;;;4972905;28;83330;-64
2024/02/14 09:00:53;;;;;;;4.93;0.90;;;;;;;;;;4978286;28;82651;-66
2024/02/14 09:03:19;;;;;;;3.67;0.80;;;;;;;;;;4977802;28;84105;-65
2024/02/14 09:05:46;;;;;;;6.53;0.88;;;;;;;;;;4975336;28;82703;-66
2024/02/14 09:08:13;;;;;;;2.97;1.00;;;;;;;;;;4979125;28;100537;-66
2024/02/14 09:10:38;;;;;;;2.43;1.00;;;;;;;;;;4972658;28;82507;-66
2024/02/14 09:13:04;;;;;;;3.00;0.80;;;;;;;;;;4978623;28;81945;-66
2024/02/14 09:15:30;;;;;;;2.10;0.90;;;;;;;;;;4976208;28;83394;-64
2024/02/14 09:17:57;;;;;;;2.70;0.80;;;;;;;;;;4974404;28;83191;-65
2024/02/14 09:20:22;;;;;;;5.40;1.00;;;;;;;;;;4975986;28;82418;-64
2024/02/14 09:22:47;;;;;;;1.30;0.93;;;;;;;;;;4978875;28;82356;-64
2024/02/14 09:25:13;;;;;;;4.60;1.30;;;;;;;;;;4978543;28;82907;-64
2024/02/14 09:27:39;;;;;;;3.65;1.10;;;;;;;;;;4978088;28;81966;-64
2024/02/14 09:30:07;;;;;;;1.98;0.80;;;;;;;;;;4978791;28;82303;-63
2024/02/14 09:32:32;;;;;;;2.08;1.10;;;;;;;;;;4977106;28;81459;-65
2024/02/14 09:35:01;;;;;;;1.73;0.97;;;;;;;;;;4977578;28;82184;-65
2024/02/14 09:37:28;;;;;;;1.15;1.00;;;;;;;;;;4977066;28;82732;-65
2024/02/14 09:39:53;;;;;;;21.23;5.63;;;;;;;;;;4976259;28;82900;-65
2024/02/14 09:42:23;;;;;;;8.35;2.35;;;;;;;;;;4975735;28;82301;-65
2024/02/14 09:44:50;;;;;;;7.47;1.75;;;;;;;;;;4971752;28;82528;-65
2024/02/14 09:47:15;;;;;;;7.67;1.40;;;;;;;;;;4976524;28;82058;-66
2024/02/14 09:49:40;;;;;;;3.53;1.27;;;;;;;;;;4976768;28;82061;-65
2024/02/14 09:52:06;;;;;;;2.00;1.17;;;;;;;;;;4977403;28;82433;-67
2024/02/14 09:54:31;;;;;;;4.67;1.57;;;;;;;;;;4975624;28;82359;-67
2024/02/14 09:56:57;;;;;;;5.40;1.13;;;;;;;;;;4977787;28;82366;-64
2024/02/14 09:59:23;;;;;;;8.10;1.30;;;;;;;;;;4976741;28;82421;-65
2024/02/14 10:01:50;;;;;;;2.87;1.23;;;;;;;;;;4970752;28;82003;-65
2024/02/14 10:04:17;;;;;;;2.28;1.42;;;;;;;;;;4975841;28;82887;-67
2024/02/14 10:06:43;;;;;;;2.35;1.23;;;;;;;;;;4976089;28;85048;-65
2024/02/14 10:09:10;;;;;;;5.07;1.37;;;;;;;;;;4978729;28;82111;-66
2024/02/14 10:11:36;;;;;;;4.05;1.05;;;;;;;;;;4980733;28;82927;-66
2024/02/14 10:14:03;;;;;;;4.15;1.13;;;;;;;;;;4980278;28;84107;-69
2024/02/14 10:16:28;;;;;;;3.47;1.23;;;;;;;;;;4973294;28;82082;-65
2024/02/14 10:18:54;;;;;;;2.50;1.20;;;;;;;;;;4975505;28;83488;-65
2024/02/14 10:21:19;;;;;;;5.87;1.33;;;;;;;;;;4981810;28;81733;-65
2024/02/14 10:23:46;;;;;;;2.90;1.07;;;;;;;;;;4978330;28;83602;-67
2024/02/14 10:26:12;;;;;;;4.68;1.20;;;;;;;;;;4981304;28;82858;-65
2024/02/14 10:28:40;;;;;;;2.97;1.10;;;;;;;;;;4981357;28;83176;-66
2024/02/14 10:31:05;;;;;;;3.03;1.15;;;;;;;;;;4978783;28;84466;-65
2024/02/14 10:33:31;;;;;;;1.50;0.90;;;;;;;;;;4982818;28;83248;-65
2024/02/14 10:35:57;;;;;;;2.65;0.90;;;;;;;;;;4980974;28;82132;-67
2024/02/14 10:38:22;;;;;;;3.10;0.90;;;;;;;;;;4980250;28;81795;-65
2024/02/14 10:40:48;;;;;;;3.27;1.10;;;;;;;;;;4981046;28;82604;-65
2024/02/14 10:43:14;;;;;;;2.90;0.93;;;;;;;;;;4980542;28;82121;-67
2024/02/14 10:45:39;;;;;;;3.73;1.10;;;;;;;;;;4981242;28;83382;-65
2024/02/14 10:48:08;;;;;;;2.60;1.20;;;;;;;;;;4980260;28;82185;-66
2024/02/14 10:50:36;;;;;;;1.67;0.85;;;;;;;;;;4978182;28;83421;-65
2024/02/14 10:53:04;;;;;;;2.83;1.27;;;;;;;;;;4979533;28;83289;-65
2024/02/14 10:55:30;;;;;;;1.47;0.77;;;;;;;;;;4981477;28;84308;-66
2024/02/14 10:57:55;;;;;;;1.80;0.82;;;;;;;;;;4978890;28;83458;-65
2024/02/14 11:00:20;;;;;;;2.00;0.88;;;;;;;;;;4977870;28;82365;-65
2024/02/14 11:02:47;;;;;;;2.75;0.95;;;;;;;;;;4980141;28;81983;-67
2024/02/14 11:05:14;;;;;;;1.38;0.73;;;;;;;;;;4980545;28;82678;-65
2024/02/14 11:07:43;;;;;;;1.20;0.80;;;;;;;;;;4978684;28;81944;-68
2024/02/14 11:10:13;;;;;;;2.45;0.80;;;;;;;;;;4978342;28;82031;-65
2024/02/14 11:12:41;;;;;;;2.60;1.00;;;;;;;;;;4980680;28;83055;-64
2024/02/14 11:15:16;;;;;;;0.57;0.57;;;;;;;;;;4980831;28;81928;-69
2024/02/14 11:17:42;;;;;;;2.47;1.02;;;;;;;;;;4981622;28;83674;-65
2024/02/14 11:20:24;;;;;;;4.10;0.83;;;;;;;;;;4976017;28;82087;-69
2024/02/14 11:22:56;;;;;;;2.25;0.80;;;;;;;;;;4978805;28;81899;-65
2024/02/14 11:25:23;;;;;;;1.90;0.60;;;;;;;;;;4978875;28;82638;-65
2024/02/14 11:27:49;;;;;;;0.88;0.65;;;;;;;;;;4980075;28;82740;-67
2024/02/14 11:30:14;;;;;;;3.63;0.80;;;;;;;;;;4980101;28;81833;-69
2024/02/14 11:32:42;;;;;;;2.93;0.80;;;;;;;;;;4979548;28;83411;-65
2024/02/14 11:35:10;;;;;;;2.55;0.70;;;;;;;;;;4978883;28;81936;-66
2024/02/14 11:37:36;;;;;;;1.80;0.60;;;;;;;;;;4978249;28;82665;-66
2024/02/14 11:40:02;;;;;;;2.80;1.10;;;;;;;;;;4979900;28;82619;-68
2024/02/14 11:42:27;;;;;;;2.67;0.70;;;;;;;;;;4979402;28;82835;-65
2024/02/14 11:44:53;;;;;;;0.77;0.70;;;;;;;;;;4975822;28;82603;-65
2024/02/14 11:47:19;;;;;;;1.00;0.70;;;;;;;;;;4973091;28;83023;-66
2024/02/14 11:49:44;;;;;;;1.45;0.70;;;;;;;;;;4977113;28;83256;-69
2024/02/14 11:52:11;;;;;;;1.27;0.52;;;;;;;;;;4979892;28;81830;-65
2024/02/14 11:54:37;;;;;;;2.70;0.88;;;;;;;;;;4978532;28;81981;-65
2024/02/14 11:57:03;;;;;;;3.20;1.05;;;;;;;;;;4980045;28;82099;-71
2024/02/14 11:59:29;;;;;;;2.30;1.00;;;;;;;;;;4980386;28;81507;-65
2024/02/14 12:01:57;;;;;;;1.90;0.60;;;;;;;;;;4981955;28;82326;-65
2024/02/14 12:04:23;;;;;;;1.77;0.90;;;;;;;;;;4978868;28;81941;-65
2024/02/14 12:06:48;;;;;;;2.13;0.73;;;;;;;;;;4978219;28;83348;-66
2024/02/14 12:09:14;;;;;;;4.30;0.80;;;;;;;;;;4980042;28;82072;-68
2024/02/14 12:11:44;;;;;;;1.20;0.63;;;;;;;;;;4979215;28;82603;-67
2024/02/14 12:14:10;;;;;;;3.15;0.88;;;;;;;;;;4979822;28;82598;-68
2024/02/14 12:16:40;;;;;;;3.10;0.88;;;;;;;;;;4978353;28;83322;-65
2024/02/14 12:19:09;;;;;;;1.00;0.70;;;;;;;;;;4975777;28;82843;-65
2024/02/14 12:21:38;;;;;;;1.23;0.82;;;;;;;;;;4980895;28;81975;-65
2024/02/14 12:24:07;;;;;;;0.82;0.60;;;;;;;;;;4979262;28;81929;-69
2024/02/14 12:26:32;;;;;;;3.72;1.10;;;;;;;;;;4978201;28;82154;-65
2024/02/14 12:28:58;;;;;;;3.03;1.10;;;;;;;;;;4977154;28;83163;-65
2024/02/14 12:31:23;;;;;;;1.77;0.97;;;;;;;;;;4976760;28;83477;-65
2024/02/14 12:33:49;;;;;;;3.20;0.80;;;;;;;;;;4976923;28;82844;-65
2024/02/14 12:36:14;;;;;;;1.97;1.03;;;;;;;;;;4979053;28;81876;-65
2024/02/14 12:38:39;;;;;;;2.70;1.00;;;;;;;;;;4978713;28;82504;-66
2024/02/14 12:41:05;;;;;;;2.10;0.80;;;;;;;;;;4974503;28;82022;-66
2024/02/14 12:43:30;;;;;;;2.07;0.90;;;;;;;;;;4981501;28;82000;-65
2024/02/14 12:45:55;;;;;;;3.27;1.00;;;;;;;;;;4972816;28;82116;-66
2024/02/14 12:48:26;;;;;;;1.03;0.53;;;;;;;;;;4976636;28;82340;-66
2024/02/14 12:50:52;;;;;;;3.75;0.63;;;;;;;;;;4974094;28;82321;-66
2024/02/14 12:53:17;;;;;;;3.72;0.90;;;;;;;;;;4974739;28;82324;-66
2024/02/14 12:55:43;;;;;;;2.03;0.77;;;;;;;;;;4976368;28;83305;-67
2024/02/14 12:58:09;;;;;;;2.43;0.80;;;;;;;;;;4978604;28;82651;-66
2024/02/14 13:00:35;;;;;;;1.88;0.70;;;;;;;;;;4976438;28;82558;-64
2024/02/14 13:03:00;;;;;;;1.80;0.90;;;;;;;;;;4976802;28;81940;-64
2024/02/14 13:05:26;;;;;;;1.63;0.60;;;;;;;;;;4976989;28;82016;-65
2024/02/14 13:07:51;;;;;;;2.20;0.80;;;;;;;;;;4978983;28;81922;-67
2024/02/14 13:10:17;;;;;;;1.33;0.80;;;;;;;;;;4978215;28;82498;-65
2024/02/14 13:12:45;;;;;;;1.58;0.70;;;;;;;;;;4979031;28;81814;-66
2024/02/14 13:15:10;;;;;;;1.05;0.70;;;;;;;;;;4978556;28;83568;-65
2024/02/14 13:17:35;;;;;;;1.20;0.65;;;;;;;;;;4978833;28;82480;-67
2024/02/14 13:20:01;;;;;;;1.20;0.70;;;;;;;;;;4978187;28;84196;-65
2024/02/14 13:22:26;;;;;;;2.03;0.80;;;;;;;;;;4976642;28;83313;-65
2024/02/14 13:24:51;;;;;;;1.37;0.70;;;;;;;;;;4978295;28;82180;-65
2024/02/14 13:27:17;;;;;;;1.60;0.70;;;;;;;;;;4979565;28;82392;-65
2024/02/14 13:29:42;;;;;;;1.57;0.80;;;;;;;;;;4973202;28;82159;-67
2024/02/14 13:32:08;;;;;;;4.20;1.00;;;;;;;;;;4975963;28;82199;-63
2024/02/14 13:34:36;;;;;;;3.27;0.60;;;;;;;;;;4973882;28;83134;-61
2024/02/14 13:37:02;;;;;;;5.53;0.90;;;;;;;;;;4974131;28;81474;-61
2024/02/14 13:39:27;;;;;;;1.50;0.85;;;;;;;;;;4975762;28;82069;-61
2024/02/14 13:41:54;;;;;;;2.00;0.70;;;;;;;;;;4976581;28;81834;-62
2024/02/14 13:44:20;;;;;;;1.40;0.70;;;;;;;;;;4980640;28;83819;-61
2024/02/14 13:46:45;;;;;;;1.57;0.67;;;;;;;;;;4980943;28;82161;-61
2024/02/14 13:49:11;;;;;;;2.87;0.70;;;;;;;;;;4982222;28;82130;-62
2024/02/14 13:51:37;;;;;;;1.13;0.53;;;;;;;;;;4979790;28;82028;-60
2024/02/14 13:54:02;;;;;;;1.40;0.60;;;;;;;;;;4978834;28;83329;-61
2024/02/14 13:56:27;;;;;;;1.92;0.60;;;;;;;;;;4978945;28;81941;-61
2024/02/14 13:58:52;;;;;;;2.00;0.50;;;;;;;;;;4978945;28;82140;-61
2024/02/14 14:01:18;;;;;;;3.80;0.70;;;;;;;;;;4980391;28;81622;-62
2024/02/14 14:03:44;;;;;;;2.20;0.50;;;;;;;;;;4980272;28;81845;-61
2024/02/14 14:06:09;;;;;;;3.95;0.85;;;;;;;;;;4977706;28;82571;-61
2024/02/14 14:08:38;;;;;;;2.25;0.80;;;;;;;;;;4979391;28;82867;-61
2024/02/14 14:11:03;;;;;;;2.75;0.60;;;;;;;;;;4983233;28;81929;-64
2024/02/14 14:13:30;;;;;;;3.08;0.88;;;;;;;;;;4975983;28;82040;-62
2024/02/14 14:15:56;;;;;;;2.50;0.60;;;;;;;;;;4978888;28;82313;-63
2024/02/14 14:18:21;;;;;;;1.73;0.77;;;;;;;;;;4976319;28;84398;-63
2024/02/14 14:20:46;;;;;;;1.80;0.70;;;;;;;;;;4977784;28;82677;-62
2024/02/14 14:23:12;;;;;;;1.40;0.70;;;;;;;;;;4977030;28;82110;-62
2024/02/14 14:25:38;;;;;;;3.08;0.75;;;;;;;;;;4977667;28;82210;-62
2024/02/14 14:28:03;;;;;;;2.90;0.70;;;;;;;;;;4976207;28;82245;-63
2024/02/14 14:30:28;;;;;;;1.77;0.50;;;;;;;;;;4979451;28;82594;-62
2024/02/14 14:32:53;;;;;;;0.80;0.67;;;;;;;;;;4976904;28;84090;-62
2024/02/14 14:35:19;;;;;;;1.67;0.60;;;;;;;;;;4977361;28;83111;-62